sensor_id;sensor_type;location;lat;lon;timestamp;P1;durP1;ratioP1;P2;durP2;ratioP2
22144;SDS011;11238;48.730;11.566;2023-05-27T00:01:02;8.77;;;4.10;;
22144;SDS011;11238;48.730;11.566;2023-05-27T00:03:28;8.85;;;4.00;;
22144;SDS011;11238;48.730;11.566;2023-05-27T00:05:53;9.82;;;4.28;;
22144;SDS011;11238;48.730;11.566;2023-05-27T00:08:20;12.55;;;3.97;;
22144;SDS011;11238;48.730;11.566;2023-05-27T00:10:45;10.85;;;4.10;;
22144;SDS011;11238;48.730;11.566;2023-05-27T00:13:13;8.98;;;3.80;;
22144;SDS011;11238;48.730;11.566;2023-05-27T00:15:40;10.15;;;4.25;;
22144;SDS011;11238;48.730;11.566;2023-05-27T00:18:06;13.45;;;3.88;;
22144;SDS011;11238;48.730;11.566;2023-05-27T00:20:31;9.55;;;3.80;;
22144;SDS011;11238;48.730;11.566;2023-05-27T00:22:57;12.85;;;3.90;;
22144;SDS011;11238;48.730;11.566;2023-05-27T00:25:26;8.57;;;3.78;;
22144;SDS011;11238;48.730;11.566;2023-05-27T00:27:53;11.73;;;3.97;;
22144;SDS011;11238;48.730;11.566;2023-05-27T00:30:20;10.57;;;3.95;;
22144;SDS011;11238;48.730;11.566;2023-05-27T00:32:46;9.80;;;3.75;;
22144;SDS011;11238;48.730;11.566;2023-05-27T00:35:12;8.88;;;3.85;;
22144;SDS011;11238;48.730;11.566;2023-05-27T00:37:38;7.22;;;4.07;;
22144;SDS011;11238;48.730;11.566;2023-05-27T00:40:04;8.13;;;3.85;;
22144;SDS011;11238;48.730;11.566;2023-05-27T00:42:30;9.48;;;3.88;;
22144;SDS011;11238;48.730;11.566;2023-05-27T00:44:56;9.77;;;3.58;;
22144;SDS011;11238;48.730;11.566;2023-05-27T00:47:22;9.23;;;3.60;;
22144;SDS011;11238;48.730;11.566;2023-05-27T00:49:51;8.38;;;3.92;;
22144;SDS011;11238;48.730;11.566;2023-05-27T00:52:18;11.30;;;3.88;;
22144;SDS011;11238;48.730;11.566;2023-05-27T00:54:44;10.52;;;4.20;;
22144;SDS011;11238;48.730;11.566;2023-05-27T00:57:10;12.95;;;4.07;;
22144;SDS011;11238;48.730;11.566;2023-05-27T00:59:36;8.70;;;4.18;;
22144;SDS011;11238;48.730;11.566;2023-05-27T01:02:02;8.50;;;4.10;;
22144;SDS011;11238;48.730;11.566;2023-05-27T01:04:28;10.88;;;3.95;;
22144;SDS011;11238;48.730;11.566;2023-05-27T01:10:08;9.57;;;4.22;;
22144;SDS011;11238;48.730;11.566;2023-05-27T01:15:40;14.45;;;4.50;;
22144;SDS011;11238;48.730;11.566;2023-05-27T01:18:06;13.93;;;4.20;;
22144;SDS011;11238;48.730;11.566;2023-05-27T01:20:34;10.90;;;4.32;;
22144;SDS011;11238;48.730;11.566;2023-05-27T01:23:07;10.55;;;4.38;;
22144;SDS011;11238;48.730;11.566;2023-05-27T01:25:34;15.38;;;4.53;;
22144;SDS011;11238;48.730;11.566;2023-05-27T01:27:59;9.32;;;4.30;;
22144;SDS011;11238;48.730;11.566;2023-05-27T01:30:25;10.63;;;4.20;;
22144;SDS011;11238;48.730;11.566;2023-05-27T01:37:54;13.30;;;4.82;;
22144;SDS011;11238;48.730;11.566;2023-05-27T01:40:22;10.32;;;4.90;;
22144;SDS011;11238;48.730;11.566;2023-05-27T01:42:50;9.20;;;4.25;;
22144;SDS011;11238;48.730;11.566;2023-05-27T01:45:16;11.98;;;4.15;;
22144;SDS011;11238;48.730;11.566;2023-05-27T01:47:42;10.25;;;4.47;;
22144;SDS011;11238;48.730;11.566;2023-05-27T01:50:10;11.13;;;4.68;;
22144;SDS011;11238;48.730;11.566;2023-05-27T01:52:36;8.10;;;3.67;;
22144;SDS011;11238;48.730;11.566;2023-05-27T01:55:02;10.10;;;4.43;;
22144;SDS011;11238;48.730;11.566;2023-05-27T01:57:29;10.02;;;3.90;;
22144;SDS011;11238;48.730;11.566;2023-05-27T01:59:55;11.00;;;3.95;;
22144;SDS011;11238;48.730;11.566;2023-05-27T02:02:22;10.77;;;3.80;;
22144;SDS011;11238;48.730;11.566;2023-05-27T02:04:49;11.02;;;4.50;;
22144;SDS011;11238;48.730;11.566;2023-05-27T02:07:16;10.40;;;4.53;;
22144;SDS011;11238;48.730;11.566;2023-05-27T02:09:42;12.70;;;4.90;;
22144;SDS011;11238;48.730;11.566;2023-05-27T02:12:10;11.55;;;5.15;;
22144;SDS011;11238;48.730;11.566;2023-05-27T02:14:37;9.98;;;4.30;;
22144;SDS011;11238;48.730;11.566;2023-05-27T02:17:21;11.35;;;4.60;;
22144;SDS011;11238;48.730;11.566;2023-05-27T02:19:50;10.40;;;4.50;;
22144;SDS011;11238;48.730;11.566;2023-05-27T02:22:16;9.57;;;4.30;;
22144;SDS011;11238;48.730;11.566;2023-05-27T02:24:42;8.93;;;4.65;;
22144;SDS011;11238;48.730;11.566;2023-05-27T02:27:08;9.90;;;4.45;;
22144;SDS011;11238;48.730;11.566;2023-05-27T02:29:34;11.23;;;4.82;;
22144;SDS011;11238;48.730;11.566;2023-05-27T02:32:00;9.80;;;4.15;;
22144;SDS011;11238;48.730;11.566;2023-05-27T02:34:26;11.00;;;4.40;;
22144;SDS011;11238;48.730;11.566;2023-05-27T02:36:52;11.13;;;4.40;;
22144;SDS011;11238;48.730;11.566;2023-05-27T02:39:17;9.25;;;4.25;;
22144;SDS011;11238;48.730;11.566;2023-05-27T02:41:43;9.75;;;4.28;;
22144;SDS011;11238;48.730;11.566;2023-05-27T02:44:10;13.70;;;4.55;;
22144;SDS011;11238;48.730;11.566;2023-05-27T02:46:36;9.35;;;4.07;;
22144;SDS011;11238;48.730;11.566;2023-05-27T02:49:02;13.35;;;4.70;;
22144;SDS011;11238;48.730;11.566;2023-05-27T02:51:28;10.25;;;4.00;;
22144;SDS011;11238;48.730;11.566;2023-05-27T02:53:54;8.95;;;3.65;;
22144;SDS011;11238;48.730;11.566;2023-05-27T02:56:20;10.32;;;4.05;;
22144;SDS011;11238;48.730;11.566;2023-05-27T02:58:47;9.98;;;3.90;;
22144;SDS011;11238;48.730;11.566;2023-05-27T03:01:13;9.35;;;3.88;;
22144;SDS011;11238;48.730;11.566;2023-05-27T03:03:39;13.85;;;4.28;;
22144;SDS011;11238;48.730;11.566;2023-05-27T03:06:05;9.02;;;4.10;;
22144;SDS011;11238;48.730;11.566;2023-05-27T03:08:31;11.02;;;3.97;;
22144;SDS011;11238;48.730;11.566;2023-05-27T03:10:57;15.55;;;4.43;;
22144;SDS011;11238;48.730;11.566;2023-05-27T03:13:23;10.88;;;4.22;;
22144;SDS011;11238;48.730;11.566;2023-05-27T03:15:49;9.50;;;3.90;;
22144;SDS011;11238;48.730;11.566;2023-05-27T03:18:15;11.85;;;3.53;;
22144;SDS011;11238;48.730;11.566;2023-05-27T03:20:40;12.05;;;3.97;;
22144;SDS011;11238;48.730;11.566;2023-05-27T03:23:07;11.10;;;3.58;;
22144;SDS011;11238;48.730;11.566;2023-05-27T03:25:33;11.02;;;3.60;;
22144;SDS011;11238;48.730;11.566;2023-05-27T03:28:01;11.35;;;3.63;;
22144;SDS011;11238;48.730;11.566;2023-05-27T03:30:27;12.52;;;3.83;;
22144;SDS011;11238;48.730;11.566;2023-05-27T03:32:54;11.77;;;3.90;;
22144;SDS011;11238;48.730;11.566;2023-05-27T03:35:27;14.63;;;3.90;;
22144;SDS011;11238;48.730;11.566;2023-05-27T03:37:53;9.45;;;3.55;;
22144;SDS011;11238;48.730;11.566;2023-05-27T03:40:19;11.82;;;3.83;;
22144;SDS011;11238;48.730;11.566;2023-05-27T03:42:45;14.85;;;4.00;;
22144;SDS011;11238;48.730;11.566;2023-05-27T03:45:12;13.70;;;4.07;;
22144;SDS011;11238;48.730;11.566;2023-05-27T03:47:38;13.80;;;3.67;;
22144;SDS011;11238;48.730;11.566;2023-05-27T03:50:04;12.90;;;4.20;;
22144;SDS011;11238;48.730;11.566;2023-05-27T03:52:31;12.25;;;3.70;;
22144;SDS011;11238;48.730;11.566;2023-05-27T03:54:57;10.30;;;4.07;;
22144;SDS011;11238;48.730;11.566;2023-05-27T03:57:22;11.07;;;3.50;;
22144;SDS011;11238;48.730;11.566;2023-05-27T03:59:49;12.80;;;4.28;;
22144;SDS011;11238;48.730;11.566;2023-05-27T04:02:14;9.20;;;3.95;;
22144;SDS011;11238;48.730;11.566;2023-05-27T04:04:41;14.75;;;3.90;;
22144;SDS011;11238;48.730;11.566;2023-05-27T04:07:06;10.48;;;3.60;;
22144;SDS011;11238;48.730;11.566;2023-05-27T04:09:33;13.73;;;3.45;;
22144;SDS011;11238;48.730;11.566;2023-05-27T04:11:58;13.90;;;4.18;;
22144;SDS011;11238;48.730;11.566;2023-05-27T04:14:24;10.98;;;4.05;;
22144;SDS011;11238;48.730;11.566;2023-05-27T04:16:50;14.13;;;3.67;;
22144;SDS011;11238;48.730;11.566;2023-05-27T04:19:17;8.98;;;3.60;;
22144;SDS011;11238;48.730;11.566;2023-05-27T04:21:43;11.50;;;4.15;;
22144;SDS011;11238;48.730;11.566;2023-05-27T04:24:09;15.70;;;4.03;;
22144;SDS011;11238;48.730;11.566;2023-05-27T04:26:34;9.15;;;3.55;;
22144;SDS011;11238;48.730;11.566;2023-05-27T04:29:00;9.88;;;4.13;;
22144;SDS011;11238;48.730;11.566;2023-05-27T04:31:27;14.00;;;4.63;;
22144;SDS011;11238;48.730;11.566;2023-05-27T04:34:02;13.25;;;4.03;;
22144;SDS011;11238;48.730;11.566;2023-05-27T04:36:29;10.20;;;4.00;;
22144;SDS011;11238;48.730;11.566;2023-05-27T04:39:10;9.77;;;3.30;;
22144;SDS011;11238;48.730;11.566;2023-05-27T04:41:40;10.35;;;3.80;;
22144;SDS011;11238;48.730;11.566;2023-05-27T04:44:25;14.20;;;3.90;;
22144;SDS011;11238;48.730;11.566;2023-05-27T04:46:54;16.75;;;3.90;;
22144;SDS011;11238;48.730;11.566;2023-05-27T04:49:24;9.95;;;3.80;;
22144;SDS011;11238;48.730;11.566;2023-05-27T04:51:49;12.63;;;3.97;;
22144;SDS011;11238;48.730;11.566;2023-05-27T04:54:18;11.95;;;3.60;;
22144;SDS011;11238;48.730;11.566;2023-05-27T04:56:45;10.70;;;3.67;;
22144;SDS011;11238;48.730;11.566;2023-05-27T04:59:17;9.50;;;3.50;;
22144;SDS011;11238;48.730;11.566;2023-05-27T05:01:45;10.38;;;3.58;;
22144;SDS011;11238;48.730;11.566;2023-05-27T05:04:32;15.68;;;3.78;;
22144;SDS011;11238;48.730;11.566;2023-05-27T05:07:01;12.45;;;3.72;;
22144;SDS011;11238;48.730;11.566;2023-05-27T05:09:27;9.90;;;4.00;;
22144;SDS011;11238;48.730;11.566;2023-05-27T05:11:57;6.60;;;3.38;;
22144;SDS011;11238;48.730;11.566;2023-05-27T05:14:23;11.85;;;4.00;;
22144;SDS011;11238;48.730;11.566;2023-05-27T05:16:50;13.77;;;3.70;;
22144;SDS011;11238;48.730;11.566;2023-05-27T05:19:16;12.48;;;3.53;;
22144;SDS011;11238;48.730;11.566;2023-05-27T05:21:42;11.55;;;4.20;;
22144;SDS011;11238;48.730;11.566;2023-05-27T05:24:10;9.45;;;3.28;;
22144;SDS011;11238;48.730;11.566;2023-05-27T05:26:36;8.50;;;3.58;;
22144;SDS011;11238;48.730;11.566;2023-05-27T05:29:03;13.60;;;3.80;;
22144;SDS011;11238;48.730;11.566;2023-05-27T05:31:28;10.88;;;3.55;;
22144;SDS011;11238;48.730;11.566;2023-05-27T05:33:54;13.40;;;3.63;;
22144;SDS011;11238;48.730;11.566;2023-05-27T05:36:21;11.27;;;3.70;;
22144;SDS011;11238;48.730;11.566;2023-05-27T05:38:53;10.38;;;3.45;;
22144;SDS011;11238;48.730;11.566;2023-05-27T05:41:19;11.38;;;4.00;;
22144;SDS011;11238;48.730;11.566;2023-05-27T05:43:45;10.63;;;3.83;;
22144;SDS011;11238;48.730;11.566;2023-05-27T05:46:12;11.82;;;4.20;;
22144;SDS011;11238;48.730;11.566;2023-05-27T05:48:37;11.65;;;3.75;;
22144;SDS011;11238;48.730;11.566;2023-05-27T05:51:06;13.60;;;3.80;;
22144;SDS011;11238;48.730;11.566;2023-05-27T05:53:32;8.70;;;3.60;;
22144;SDS011;11238;48.730;11.566;2023-05-27T05:55:57;11.50;;;3.55;;
22144;SDS011;11238;48.730;11.566;2023-05-27T05:58:27;10.43;;;4.00;;
22144;SDS011;11238;48.730;11.566;2023-05-27T06:00:52;7.80;;;3.78;;
22144;SDS011;11238;48.730;11.566;2023-05-27T06:03:28;12.73;;;3.70;;
22144;SDS011;11238;48.730;11.566;2023-05-27T06:05:57;10.73;;;3.75;;
22144;SDS011;11238;48.730;11.566;2023-05-27T06:08:23;15.60;;;3.58;;
22144;SDS011;11238;48.730;11.566;2023-05-27T06:10:59;16.13;;;3.97;;
22144;SDS011;11238;48.730;11.566;2023-05-27T06:13:25;12.70;;;3.70;;
22144;SDS011;11238;48.730;11.566;2023-05-27T06:15:53;11.20;;;3.42;;
22144;SDS011;11238;48.730;11.566;2023-05-27T06:18:21;16.02;;;4.28;;
22144;SDS011;11238;48.730;11.566;2023-05-27T06:20:48;11.70;;;3.85;;
22144;SDS011;11238;48.730;11.566;2023-05-27T06:23:14;12.07;;;3.83;;
22144;SDS011;11238;48.730;11.566;2023-05-27T06:26:04;14.45;;;3.60;;
22144;SDS011;11238;48.730;11.566;2023-05-27T06:28:36;15.55;;;3.92;;
22144;SDS011;11238;48.730;11.566;2023-05-27T06:31:02;12.88;;;4.07;;
22144;SDS011;11238;48.730;11.566;2023-05-27T06:33:28;9.95;;;3.30;;
22144;SDS011;11238;48.730;11.566;2023-05-27T06:35:54;15.48;;;4.07;;
22144;SDS011;11238;48.730;11.566;2023-05-27T06:38:20;10.02;;;3.53;;
22144;SDS011;11238;48.730;11.566;2023-05-27T06:40:48;14.88;;;3.88;;
22144;SDS011;11238;48.730;11.566;2023-05-27T06:43:14;11.98;;;3.83;;
22144;SDS011;11238;48.730;11.566;2023-05-27T06:45:52;12.02;;;3.67;;
22144;SDS011;11238;48.730;11.566;2023-05-27T06:48:33;12.05;;;3.60;;
22144;SDS011;11238;48.730;11.566;2023-05-27T06:50:59;13.25;;;3.88;;
22144;SDS011;11238;48.730;11.566;2023-05-27T06:53:25;11.82;;;3.80;;
22144;SDS011;11238;48.730;11.566;2023-05-27T06:55:55;11.20;;;3.72;;
22144;SDS011;11238;48.730;11.566;2023-05-27T06:58:40;16.00;;;3.90;;
22144;SDS011;11238;48.730;11.566;2023-05-27T07:01:10;10.57;;;3.75;;
22144;SDS011;11238;48.730;11.566;2023-05-27T07:03:40;8.80;;;3.42;;
22144;SDS011;11238;48.730;11.566;2023-05-27T07:06:08;11.25;;;3.80;;
22144;SDS011;11238;48.730;11.566;2023-05-27T07:08:42;11.52;;;3.78;;
22144;SDS011;11238;48.730;11.566;2023-05-27T07:11:16;10.27;;;4.10;;
22144;SDS011;11238;48.730;11.566;2023-05-27T07:13:42;13.50;;;3.85;;
22144;SDS011;11238;48.730;11.566;2023-05-27T07:16:08;12.35;;;4.32;;
22144;SDS011;11238;48.730;11.566;2023-05-27T07:18:34;13.02;;;3.55;;
22144;SDS011;11238;48.730;11.566;2023-05-27T07:21:02;13.20;;;3.50;;
22144;SDS011;11238;48.730;11.566;2023-05-27T07:23:28;15.13;;;4.28;;
22144;SDS011;11238;48.730;11.566;2023-05-27T07:26:04;8.35;;;3.22;;
22144;SDS011;11238;48.730;11.566;2023-05-27T07:28:30;10.85;;;3.90;;
22144;SDS011;11238;48.730;11.566;2023-05-27T07:31:07;13.30;;;3.83;;
22144;SDS011;11238;48.730;11.566;2023-05-27T07:33:41;10.23;;;3.50;;
22144;SDS011;11238;48.730;11.566;2023-05-27T07:36:07;9.20;;;3.35;;
22144;SDS011;11238;48.730;11.566;2023-05-27T07:38:33;13.55;;;4.28;;
22144;SDS011;11238;48.730;11.566;2023-05-27T07:40:59;12.05;;;3.22;;
22144;SDS011;11238;48.730;11.566;2023-05-27T07:43:25;10.85;;;3.45;;
22144;SDS011;11238;48.730;11.566;2023-05-27T07:45:51;11.55;;;4.03;;
22144;SDS011;11238;48.730;11.566;2023-05-27T07:48:17;8.48;;;3.78;;
22144;SDS011;11238;48.730;11.566;2023-05-27T07:50:43;11.57;;;3.63;;
22144;SDS011;11238;48.730;11.566;2023-05-27T07:53:14;12.77;;;3.75;;
22144;SDS011;11238;48.730;11.566;2023-05-27T07:55:40;13.73;;;3.92;;
22144;SDS011;11238;48.730;11.566;2023-05-27T07:58:06;15.65;;;3.60;;
22144;SDS011;11238;48.730;11.566;2023-05-27T08:00:45;9.55;;;3.40;;
22144;SDS011;11238;48.730;11.566;2023-05-27T08:03:11;10.60;;;3.40;;
22144;SDS011;11238;48.730;11.566;2023-05-27T08:06:00;12.85;;;4.10;;
22144;SDS011;11238;48.730;11.566;2023-05-27T08:08:59;8.40;;;3.60;;
22144;SDS011;11238;48.730;11.566;2023-05-27T08:11:34;9.23;;;3.60;;
22144;SDS011;11238;48.730;11.566;2023-05-27T08:14:20;14.57;;;4.10;;
22144;SDS011;11238;48.730;11.566;2023-05-27T08:17:07;12.15;;;3.33;;
22144;SDS011;11238;48.730;11.566;2023-05-27T08:19:52;12.35;;;3.83;;
22144;SDS011;11238;48.730;11.566;2023-05-27T08:22:41;10.65;;;3.40;;
22144;SDS011;11238;48.730;11.566;2023-05-27T08:25:31;11.05;;;3.53;;
22144;SDS011;11238;48.730;11.566;2023-05-27T08:28:29;10.55;;;3.38;;
22144;SDS011;11238;48.730;11.566;2023-05-27T08:31:18;11.52;;;3.83;;
22144;SDS011;11238;48.730;11.566;2023-05-27T08:33:49;10.07;;;3.90;;
22144;SDS011;11238;48.730;11.566;2023-05-27T08:36:15;13.02;;;3.80;;
22144;SDS011;11238;48.730;11.566;2023-05-27T08:38:45;8.70;;;3.72;;
22144;SDS011;11238;48.730;11.566;2023-05-27T08:41:26;10.85;;;3.35;;
22144;SDS011;11238;48.730;11.566;2023-05-27T08:43:53;13.18;;;4.15;;
22144;SDS011;11238;48.730;11.566;2023-05-27T08:46:20;12.13;;;3.80;;
22144;SDS011;11238;48.730;11.566;2023-05-27T08:48:46;15.48;;;4.30;;
22144;SDS011;11238;48.730;11.566;2023-05-27T08:51:13;10.27;;;3.58;;
22144;SDS011;11238;48.730;11.566;2023-05-27T08:53:43;15.07;;;3.90;;
22144;SDS011;11238;48.730;11.566;2023-05-27T08:56:12;13.48;;;3.72;;
22144;SDS011;11238;48.730;11.566;2023-05-27T08:58:44;8.90;;;3.78;;
22144;SDS011;11238;48.730;11.566;2023-05-27T09:01:10;13.65;;;3.47;;
22144;SDS011;11238;48.730;11.566;2023-05-27T09:03:36;11.30;;;3.75;;
22144;SDS011;11238;48.730;11.566;2023-05-27T09:06:02;9.48;;;3.65;;
22144;SDS011;11238;48.730;11.566;2023-05-27T09:08:30;14.38;;;3.97;;
22144;SDS011;11238;48.730;11.566;2023-05-27T09:10:56;8.43;;;3.55;;
22144;SDS011;11238;48.730;11.566;2023-05-27T09:13:30;13.45;;;3.97;;
22144;SDS011;11238;48.730;11.566;2023-05-27T09:16:01;9.13;;;3.60;;
22144;SDS011;11238;48.730;11.566;2023-05-27T09:18:32;10.10;;;3.80;;
22144;SDS011;11238;48.730;11.566;2023-05-27T09:21:00;11.07;;;4.22;;
22144;SDS011;11238;48.730;11.566;2023-05-27T09:23:27;11.60;;;3.72;;
22144;SDS011;11238;48.730;11.566;2023-05-27T09:25:53;14.45;;;3.58;;
22144;SDS011;11238;48.730;11.566;2023-05-27T09:28:22;11.27;;;4.07;;
22144;SDS011;11238;48.730;11.566;2023-05-27T09:30:59;8.55;;;4.07;;
22144;SDS011;11238;48.730;11.566;2023-05-27T09:33:26;13.18;;;3.85;;
22144;SDS011;11238;48.730;11.566;2023-05-27T09:35:55;8.45;;;3.60;;
22144;SDS011;11238;48.730;11.566;2023-05-27T10:34:07;8.65;;;3.92;;
22144;SDS011;11238;48.730;11.566;2023-05-27T10:36:33;11.38;;;3.40;;
22144;SDS011;11238;48.730;11.566;2023-05-27T10:39:03;9.25;;;4.03;;
22144;SDS011;11238;48.730;11.566;2023-05-27T11:14:36;8.15;;;3.47;;
22144;SDS011;11238;48.730;11.566;2023-05-27T11:22:48;8.27;;;3.67;;
22144;SDS011;11238;48.730;11.566;2023-05-27T11:25:48;9.35;;;3.53;;
22144;SDS011;11238;48.730;11.566;2023-05-27T11:28:29;15.43;;;3.45;;
22144;SDS011;11238;48.730;11.566;2023-05-27T11:31:04;11.20;;;3.67;;
22144;SDS011;11238;48.730;11.566;2023-05-27T11:33:35;9.57;;;3.63;;
22144;SDS011;11238;48.730;11.566;2023-05-27T11:36:15;10.13;;;3.58;;
22144;SDS011;11238;48.730;11.566;2023-05-27T11:44:26;8.20;;;3.60;;
22144;SDS011;11238;48.730;11.566;2023-05-27T11:47:09;11.32;;;3.65;;
22144;SDS011;11238;48.730;11.566;2023-05-27T11:49:38;9.82;;;3.88;;
22144;SDS011;11238;48.730;11.566;2023-05-27T11:52:14;8.60;;;3.65;;
22144;SDS011;11238;48.730;11.566;2023-05-27T11:54:48;10.65;;;3.85;;
22144;SDS011;11238;48.730;11.566;2023-05-27T11:57:57;10.55;;;3.78;;
22144;SDS011;11238;48.730;11.566;2023-05-27T12:01:02;10.52;;;3.85;;
22144;SDS011;11238;48.730;11.566;2023-05-27T12:04:01;10.65;;;3.72;;
22144;SDS011;11238;48.730;11.566;2023-05-27T12:09:49;8.57;;;3.63;;
22144;SDS011;11238;48.730;11.566;2023-05-27T12:12:24;7.80;;;3.80;;
22144;SDS011;11238;48.730;11.566;2023-05-27T12:15:38;10.73;;;3.63;;
22144;SDS011;11238;48.730;11.566;2023-05-27T12:18:07;9.70;;;3.60;;
22144;SDS011;11238;48.730;11.566;2023-05-27T12:24:38;9.15;;;3.45;;
22144;SDS011;11238;48.730;11.566;2023-05-27T12:34:38;8.20;;;3.38;;
22144;SDS011;11238;48.730;11.566;2023-05-27T12:37:17;10.65;;;3.30;;
22144;SDS011;11238;48.730;11.566;2023-05-27T12:40:29;10.60;;;3.72;;
22144;SDS011;11238;48.730;11.566;2023-05-27T12:43:46;10.95;;;3.60;;
22144;SDS011;11238;48.730;11.566;2023-05-27T12:47:03;9.60;;;3.20;;
22144;SDS011;11238;48.730;11.566;2023-05-27T12:49:36;11.02;;;3.90;;
22144;SDS011;11238;48.730;11.566;2023-05-27T12:52:02;14.00;;;3.70;;
22144;SDS011;11238;48.730;11.566;2023-05-27T12:57:24;9.48;;;3.70;;
22144;SDS011;11238;48.730;11.566;2023-05-27T13:03:32;8.07;;;3.60;;
22144;SDS011;11238;48.730;11.566;2023-05-27T13:06:16;15.80;;;3.70;;
22144;SDS011;11238;48.730;11.566;2023-05-27T13:08:54;8.65;;;3.35;;
22144;SDS011;11238;48.730;11.566;2023-05-27T13:11:28;7.75;;;3.35;;
22144;SDS011;11238;48.730;11.566;2023-05-27T13:14:11;8.07;;;3.50;;
22144;SDS011;11238;48.730;11.566;2023-05-27T13:16:54;9.65;;;3.10;;
22144;SDS011;11238;48.730;11.566;2023-05-27T13:19:43;8.15;;;3.20;;
22144;SDS011;11238;48.730;11.566;2023-05-27T13:22:20;8.57;;;3.30;;
22144;SDS011;11238;48.730;11.566;2023-05-27T13:25:17;12.95;;;3.47;;
22144;SDS011;11238;48.730;11.566;2023-05-27T13:28:04;8.63;;;3.13;;
22144;SDS011;11238;48.730;11.566;2023-05-27T13:30:41;7.72;;;3.17;;
22144;SDS011;11238;48.730;11.566;2023-05-27T13:33:22;5.78;;;3.13;;
22144;SDS011;11238;48.730;11.566;2023-05-27T13:36:15;11.20;;;3.88;;
22144;SDS011;11238;48.730;11.566;2023-05-27T13:39:15;13.00;;;3.50;;
22144;SDS011;11238;48.730;11.566;2023-05-27T13:42:35;7.25;;;3.10;;
22144;SDS011;11238;48.730;11.566;2023-05-27T13:45:10;10.25;;;3.30;;
22144;SDS011;11238;48.730;11.566;2023-05-27T13:47:39;8.77;;;3.00;;
22144;SDS011;11238;48.730;11.566;2023-05-27T13:50:10;8.35;;;3.45;;
22144;SDS011;11238;48.730;11.566;2023-05-27T13:52:44;9.55;;;3.70;;
22144;SDS011;11238;48.730;11.566;2023-05-27T13:56:18;8.02;;;3.45;;
22144;SDS011;11238;48.730;11.566;2023-05-27T13:59:13;7.65;;;3.25;;
22144;SDS011;11238;48.730;11.566;2023-05-27T14:01:40;6.82;;;2.83;;
22144;SDS011;11238;48.730;11.566;2023-05-27T14:04:25;7.60;;;3.42;;
22144;SDS011;11238;48.730;11.566;2023-05-27T14:06:58;11.18;;;3.50;;
22144;SDS011;11238;48.730;11.566;2023-05-27T14:09:27;6.72;;;3.10;;
22144;SDS011;11238;48.730;11.566;2023-05-27T14:12:22;7.95;;;3.25;;
22144;SDS011;11238;48.730;11.566;2023-05-27T14:14:54;11.35;;;3.72;;
22144;SDS011;11238;48.730;11.566;2023-05-27T14:17:23;8.85;;;3.33;;
22144;SDS011;11238;48.730;11.566;2023-05-27T14:20:15;8.25;;;3.28;;
22144;SDS011;11238;48.730;11.566;2023-05-27T14:22:45;7.18;;;3.20;;
22144;SDS011;11238;48.730;11.566;2023-05-27T14:25:17;8.35;;;3.08;;
22144;SDS011;11238;48.730;11.566;2023-05-27T14:27:46;8.23;;;3.15;;
22144;SDS011;11238;48.730;11.566;2023-05-27T14:30:38;5.60;;;2.97;;
22144;SDS011;11238;48.730;11.566;2023-05-27T14:33:33;6.85;;;3.10;;
22144;SDS011;11238;48.730;11.566;2023-05-27T14:35:59;5.32;;;2.88;;
22144;SDS011;11238;48.730;11.566;2023-05-27T14:41:23;5.97;;;2.83;;
22144;SDS011;11238;48.730;11.566;2023-05-27T14:44:45;7.75;;;3.60;;
22144;SDS011;11238;48.730;11.566;2023-05-27T14:48:40;7.38;;;3.25;;
22144;SDS011;11238;48.730;11.566;2023-05-27T14:51:25;9.45;;;3.33;;
22144;SDS011;11238;48.730;11.566;2023-05-27T14:57:19;10.82;;;3.80;;
22144;SDS011;11238;48.730;11.566;2023-05-27T14:59:55;7.60;;;2.92;;
22144;SDS011;11238;48.730;11.566;2023-05-27T15:02:26;7.78;;;3.17;;
22144;SDS011;11238;48.730;11.566;2023-05-27T15:05:17;10.77;;;3.65;;
22144;SDS011;11238;48.730;11.566;2023-05-27T15:07:46;6.97;;;3.10;;
22144;SDS011;11238;48.730;11.566;2023-05-27T15:10:41;10.57;;;3.22;;
22144;SDS011;11238;48.730;11.566;2023-05-27T15:13:52;9.40;;;3.22;;
22144;SDS011;11238;48.730;11.566;2023-05-27T15:16:38;14.13;;;3.40;;
22144;SDS011;11238;48.730;11.566;2023-05-27T15:19:04;12.38;;;3.22;;
22144;SDS011;11238;48.730;11.566;2023-05-27T15:24:18;13.20;;;3.13;;
22144;SDS011;11238;48.730;11.566;2023-05-27T15:26:59;9.93;;;3.30;;
22144;SDS011;11238;48.730;11.566;2023-05-27T15:29:56;8.77;;;3.33;;
22144;SDS011;11238;48.730;11.566;2023-05-27T15:32:37;7.90;;;3.10;;
22144;SDS011;11238;48.730;11.566;2023-05-27T15:35:08;7.20;;;3.03;;
22144;SDS011;11238;48.730;11.566;2023-05-27T15:38:05;8.60;;;3.33;;
22144;SDS011;11238;48.730;11.566;2023-05-27T15:40:43;7.10;;;3.08;;
22144;SDS011;11238;48.730;11.566;2023-05-27T15:43:18;9.90;;;3.25;;
22144;SDS011;11238;48.730;11.566;2023-05-27T15:45:47;7.88;;;3.20;;
22144;SDS011;11238;48.730;11.566;2023-05-27T15:48:25;9.23;;;3.30;;
22144;SDS011;11238;48.730;11.566;2023-05-27T15:50:55;8.20;;;3.28;;
22144;SDS011;11238;48.730;11.566;2023-05-27T15:57:35;9.75;;;3.38;;
22144;SDS011;11238;48.730;11.566;2023-05-27T16:00:14;8.90;;;3.17;;
22144;SDS011;11238;48.730;11.566;2023-05-27T16:02:55;7.18;;;3.38;;
22144;SDS011;11238;48.730;11.566;2023-05-27T16:05:26;9.50;;;3.60;;
22144;SDS011;11238;48.730;11.566;2023-05-27T16:07:59;12.98;;;4.13;;
22144;SDS011;11238;48.730;11.566;2023-05-27T16:10:25;9.65;;;3.47;;
22144;SDS011;11238;48.730;11.566;2023-05-27T16:13:23;9.40;;;3.50;;
22144;SDS011;11238;48.730;11.566;2023-05-27T16:16:22;13.25;;;4.38;;
22144;SDS011;11238;48.730;11.566;2023-05-27T16:19:11;7.22;;;4.00;;
22144;SDS011;11238;48.730;11.566;2023-05-27T16:21:43;9.98;;;3.53;;
22144;SDS011;11238;48.730;11.566;2023-05-27T16:24:13;8.32;;;3.30;;
22144;SDS011;11238;48.730;11.566;2023-05-27T16:26:58;9.45;;;3.70;;
22144;SDS011;11238;48.730;11.566;2023-05-27T16:29:26;10.63;;;3.47;;
22144;SDS011;11238;48.730;11.566;2023-05-27T16:31:54;11.40;;;3.83;;
22144;SDS011;11238;48.730;11.566;2023-05-27T16:34:26;10.50;;;3.40;;
22144;SDS011;11238;48.730;11.566;2023-05-27T16:36:52;9.48;;;3.55;;
22144;SDS011;11238;48.730;11.566;2023-05-27T16:39:17;9.02;;;3.45;;
22144;SDS011;11238;48.730;11.566;2023-05-27T16:41:43;7.30;;;3.22;;
22144;SDS011;11238;48.730;11.566;2023-05-27T16:44:12;9.38;;;3.40;;
22144;SDS011;11238;48.730;11.566;2023-05-27T16:46:40;11.55;;;3.53;;
22144;SDS011;11238;48.730;11.566;2023-05-27T16:49:06;10.98;;;3.53;;
22144;SDS011;11238;48.730;11.566;2023-05-27T16:51:43;6.43;;;3.15;;
22144;SDS011;11238;48.730;11.566;2023-05-27T16:54:12;10.25;;;3.63;;
22144;SDS011;11238;48.730;11.566;2023-05-27T16:56:40;8.65;;;3.65;;
22144;SDS011;11238;48.730;11.566;2023-05-27T16:59:28;8.90;;;3.15;;
22144;SDS011;11238;48.730;11.566;2023-05-27T17:02:19;9.10;;;4.13;;
22144;SDS011;11238;48.730;11.566;2023-05-27T17:04:50;7.78;;;3.63;;
22144;SDS011;11238;48.730;11.566;2023-05-27T17:07:28;10.65;;;3.90;;
22144;SDS011;11238;48.730;11.566;2023-05-27T17:09:56;12.32;;;4.30;;
22144;SDS011;11238;48.730;11.566;2023-05-27T17:12:31;12.10;;;4.30;;
22144;SDS011;11238;48.730;11.566;2023-05-27T17:15:04;17.63;;;4.72;;
22144;SDS011;11238;48.730;11.566;2023-05-27T17:17:30;14.52;;;5.25;;
22144;SDS011;11238;48.730;11.566;2023-05-27T17:19:56;9.68;;;4.90;;
22144;SDS011;11238;48.730;11.566;2023-05-27T17:22:22;11.15;;;4.60;;
22144;SDS011;11238;48.730;11.566;2023-05-27T17:28:43;9.73;;;3.85;;